Time,TemperatureF,DewpointF,PressureIn,WindDirection,WindDirectionDegrees,WindSpeedMPH,WindSpeedGustMPH,Humidity,HourlyPrecipIn,Conditions,Clouds,dailyrainin,SoftwareType,DateUTC
2013-05-21 00:00:00,78.1,72.0,30.62,South,171,4.0,-999.0,81,-99.99,,,0.00,weatherlink.com 1.10,2013-05-21 05:00:00,
2013-05-21 00:15:00,78.0,72.0,30.61,SSW,207,4.0,-999.0,81,-99.99,,,0.00,weatherlink.com 1.10,2013-05-21 05:15:00,
2013-05-21 00:30:00,77.8,72.0,30.61,SSE,167,2.0,-999.0,82,-99.99,,,0.00,weatherlink.com 1.10,2013-05-21 05:30:00,
2013-05-21 00:45:00,77.7,72.0,30.61,SSW,194,5.0,-999.0,82,-99.99,,,0.00,weatherlink.com 1.10,2013-05-21 05:45:00,
2013-05-21 01:00:00,77.6,72.0,30.59,SE,128,2.0,-999.0,82,-99.99,,,0.00,weatherlink.com 1.10,2013-05-21 06:00:00,
2013-05-21 01:15:00,77.5,72.0,30.58,South,169,5.0,-999.0,83,-99.99,,,0.00,weatherlink.com 1.10,2013-05-21 06:15:00,
2013-05-21 01:30:00,77.0,72.0,30.57,South,185,2.0,-999.0,84,-99.99,,,0.00,weatherlink.com 1.10,2013-05-21 06:30:00,
2013-05-21 01:45:00,76.7,72.0,30.57,South,181,5.0,-999.0,84,-99.99,,,0.00,weatherlink.com 1.10,2013-05-21 06:45:00,
2013-05-21 02:00:00,76.7,72.0,30.56,SSE,161,3.0,-999.0,85,-99.99,,,0.00,weatherlink.com 1.10,2013-05-21 07:00:00,
2013-05-21 02:15:00,76.7,72.0,30.57,South,177,3.0,-999.0,85,-99.99,,,0.00,weatherlink.com 1.10,2013-05-21 07:15:00,
2013-05-21 02:30:00,76.7,72.0,30.55,East,84,3.0,-999.0,85,-99.99,,,0.00,weatherlink.com 1.10,2013-05-21 07:30:00,
2013-05-21 02:45:00,76.4,72.0,30.55,East,84,0.0,-999.0,85,-99.99,,,0.00,weatherlink.com 1.10,2013-05-21 07:45:00,
2013-05-21 03:00:00,76.0,72.0,30.56,East,82,1.0,-999.0,86,-99.99,,,0.00,weatherlink.com 1.10,2013-05-21 08:00:00,
2013-05-21 03:15:00,76.0,72.0,30.56,East,79,4.0,-999.0,87,-99.99,,,0.00,weatherlink.com 1.10,2013-05-21 08:15:00,
2013-05-21 03:30:00,76.0,72.0,30.55,East,81,0.0,-999.0,87,-99.99,,,0.00,weatherlink.com 1.10,2013-05-21 08:30:00,
2013-05-21 03:45:00,76.0,72.0,30.56,SSE,160,1.0,-999.0,87,-99.99,,,0.00,weatherlink.com 1.10,2013-05-21 08:45:00,
2013-05-21 04:00:00,75.9,72.0,30.55,ENE,67,0.0,-999.0,87,-99.99,,,0.00,weatherlink.com 1.10,2013-05-21 09:00:00,
2013-05-21 04:15:00,75.7,72.0,30.55,ENE,69,2.0,-999.0,88,-99.99,,,0.00,weatherlink.com 1.10,2013-05-21 09:15:00,
2013-05-21 04:30:00,75.5,72.0,30.55,East,82,1.0,-999.0,88,-99.99,,,0.00,weatherlink.com 1.10,2013-05-21 09:30:00,
2013-05-21 04:45:00,75.3,72.0,30.54,East,92,2.0,-999.0,88,-99.99,,,0.00,weatherlink.com 1.10,2013-05-21 09:45:00,
2013-05-21 05:00:00,75.2,72.0,30.55,ESE,116,2.0,-999.0,89,-99.99,,,0.00,weatherlink.com 1.10,2013-05-21 10:00:00,
2013-05-21 05:15:00,75.3,72.0,30.54,SSE,147,3.0,-999.0,89,-99.99,,,0.00,weatherlink.com 1.10,2013-05-21 10:15:00,
2013-05-21 05:30:00,75.5,72.0,30.55,ESE,113,2.0,-999.0,89,-99.99,,,0.00,weatherlink.com 1.10,2013-05-21 10:30:00,
2013-05-21 05:45:00,75.8,72.0,30.56,SSE,148,3.0,-999.0,89,-99.99,,,0.00,weatherlink.com 1.10,2013-05-21 10:45:00,
2013-05-21 06:00:00,76.0,73.0,30.55,SE,132,3.0,-999.0,89,-99.99,,,0.00,weatherlink.com 1.10,2013-05-21 11:00:00,
2013-05-21 06:15:00,76.0,73.0,30.55,SSE,150,1.0,-999.0,89,-99.99,,,0.00,weatherlink.com 1.10,2013-05-21 11:15:00,
2013-05-21 06:30:00,75.9,73.0,30.55,ESE,111,3.0,-999.0,89,-99.99,,,0.00,weatherlink.com 1.10,2013-05-21 11:30:00,
2013-05-21 06:45:00,75.9,73.0,30.56,East,87,3.0,-999.0,89,-99.99,,,0.00,weatherlink.com 1.10,2013-05-21 11:45:00,
2013-05-21 07:00:00,76.1,73.0,30.55,East,94,3.0,-999.0,89,-99.99,,,0.00,weatherlink.com 1.10,2013-05-21 12:00:00,
2013-05-21 07:15:00,76.2,73.0,30.56,South,182,3.0,-999.0,89,-99.99,,,0.00,weatherlink.com 1.10,2013-05-21 12:15:00,
2013-05-21 07:30:00,76.6,73.0,30.56,South,182,5.0,-999.0,89,-99.99,,,0.00,weatherlink.com 1.10,2013-05-21 12:30:00,
2013-05-21 07:45:00,76.6,73.0,30.56,SE,128,3.0,-999.0,88,-99.99,,,0.00,weatherlink.com 1.10,2013-05-21 12:45:00,
2013-05-21 08:00:00,77.1,73.0,30.56,SE,128,9.0,-999.0,87,-99.99,,,0.00,weatherlink.com 1.10,2013-05-21 13:00:00,
2013-05-21 08:15:00,77.5,73.0,30.56,SE,146,7.0,-999.0,85,-99.99,,,0.00,weatherlink.com 1.10,2013-05-21 13:15:00,
2013-05-21 08:30:00,77.5,72.0,30.57,SE,130,5.0,-999.0,84,-99.99,,,0.00,weatherlink.com 1.10,2013-05-21 13:30:00,
2013-05-21 08:45:00,77.9,73.0,30.58,SSE,158,6.0,-999.0,84,-99.99,,,0.00,weatherlink.com 1.10,2013-05-21 13:45:00,
2013-05-21 09:00:00,78.3,73.0,30.58,SE,138,7.0,-999.0,83,-99.99,,,0.00,weatherlink.com 1.10,2013-05-21 14:00:00,
2013-05-21 09:15:00,78.7,72.0,30.59,SSE,165,10.0,-999.0,80,-99.99,,,0.00,weatherlink.com 1.10,2013-05-21 14:15:00,
2013-05-21 09:30:00,78.8,72.0,30.59,SSE,152,6.0,-999.0,80,-99.99,,,0.00,weatherlink.com 1.10,2013-05-21 14:30:00,
2013-05-21 09:45:00,78.8,72.0,30.59,South,178,12.0,-999.0,79,-99.99,,,0.00,weatherlink.com 1.10,2013-05-21 14:45:00,
2013-05-21 10:01:00,79.4,72.0,30.59,SSE,156,6.0,-999.0,79,-99.99,,,0.00,weatherlink.com 1.10,2013-05-21 15:01:00,
2013-05-21 10:16:00,79.9,73.0,30.58,SSE,163,15.0,-999.0,78,-99.99,,,0.00,weatherlink.com 1.10,2013-05-21 15:16:00,
2013-05-21 10:31:00,80.2,72.0,30.57,ESE,107,4.0,-999.0,77,-99.99,,,0.00,weatherlink.com 1.10,2013-05-21 15:31:00,
2013-05-21 10:46:00,81.6,73.0,30.58,SE,140,6.0,-999.0,74,-99.99,,,0.00,weatherlink.com 1.10,2013-05-21 15:46:00,
2013-05-21 11:01:00,81.4,73.0,30.58,SSE,161,15.0,-999.0,75,-99.99,,,0.00,weatherlink.com 1.10,2013-05-21 16:01:00,
2013-05-21 11:16:00,81.3,73.0,30.58,South,181,9.0,-999.0,75,-99.99,,,0.00,weatherlink.com 1.10,2013-05-21 16:16:00,
2013-05-21 11:31:00,81.0,74.0,30.58,South,175,10.0,-999.0,78,-99.99,,,0.00,weatherlink.com 1.10,2013-05-21 16:31:00,
2013-05-21 11:46:00,82.0,73.0,30.58,SSE,150,10.0,-999.0,74,-99.99,,,0.00,weatherlink.com 1.10,2013-05-21 16:46:00,
2013-05-21 12:01:00,82.1,73.0,30.57,South,178,10.0,-999.0,73,-99.99,,,0.00,weatherlink.com 1.10,2013-05-21 17:01:00,
2013-05-21 12:16:00,83.5,74.0,30.57,SSE,165,12.0,-999.0,72,-99.99,,,0.00,weatherlink.com 1.10,2013-05-21 17:16:00,
2013-05-21 12:31:00,83.6,73.0,30.57,SSW,196,9.0,-999.0,70,-99.99,,,0.00,weatherlink.com 1.10,2013-05-21 17:31:00,
2013-05-21 12:46:00,85.2,74.0,30.56,South,173,16.0,-999.0,69,-99.99,,,0.00,weatherlink.com 1.10,2013-05-21 17:46:00,
2013-05-21 13:01:00,86.2,74.0,30.55,SSE,152,11.0,-999.0,67,-99.99,,,0.00,weatherlink.com 1.10,2013-05-21 18:01:00,
2013-05-21 13:16:00,86.6,74.0,30.54,SE,130,6.0,-999.0,67,-99.99,,,0.00,weatherlink.com 1.10,2013-05-21 18:16:00,
2013-05-21 13:31:00,86.1,73.0,30.55,SSE,161,11.0,-999.0,65,-99.99,,,0.00,weatherlink.com 1.10,2013-05-21 18:31:00,
2013-05-21 13:45:00,86.2,74.0,30.55,South,171,8.0,-999.0,66,-99.99,,,0.00,weatherlink.com 1.10,2013-05-21 18:45:00,
2013-05-21 14:00:00,87.6,73.0,30.54,SE,124,7.0,-999.0,63,-99.99,,,0.00,weatherlink.com 1.10,2013-05-21 19:00:00,
2013-05-21 14:15:00,87.8,73.0,30.54,ESE,123,7.0,-999.0,62,-99.99,,,0.00,weatherlink.com 1.10,2013-05-21 19:15:00,
2013-05-21 14:30:00,87.9,73.0,30.54,SSE,157,11.0,-999.0,61,-99.99,,,0.00,weatherlink.com 1.10,2013-05-21 19:30:00,
2013-05-21 14:46:00,88.3,73.0,30.54,SSE,161,7.0,-999.0,61,-99.99,,,0.00,weatherlink.com 1.10,2013-05-21 19:46:00,
2013-05-21 15:01:00,88.1,73.0,30.53,South,183,9.0,-999.0,61,-99.99,,,0.00,weatherlink.com 1.10,2013-05-21 20:01:00,
2013-05-21 15:16:00,88.8,74.0,30.53,SE,137,3.0,-999.0,61,-99.99,,,0.00,weatherlink.com 1.10,2013-05-21 20:16:00,
2013-05-21 15:31:00,89.4,74.0,30.51,South,174,7.0,-999.0,60,-99.99,,,0.00,weatherlink.com 1.10,2013-05-21 20:31:00,
2013-05-21 15:46:00,89.6,74.0,30.51,South,190,11.0,-999.0,60,-99.99,,,0.00,weatherlink.com 1.10,2013-05-21 20:46:00,
2013-05-21 16:01:00,88.4,73.0,30.50,South,187,12.0,-999.0,60,-99.99,,,0.00,weatherlink.com 1.10,2013-05-21 21:01:00,
2013-05-21 16:16:00,87.9,73.0,30.50,SSW,193,13.0,-999.0,62,-99.99,,,0.00,weatherlink.com 1.10,2013-05-21 21:16:00,
2013-05-21 16:31:00,88.7,74.0,30.47,South,172,12.0,-999.0,61,-99.99,,,0.00,weatherlink.com 1.10,2013-05-21 21:31:00,
2013-05-21 16:46:00,88.4,73.0,30.46,SSE,155,12.0,-999.0,61,-99.99,,,0.00,weatherlink.com 1.10,2013-05-21 21:46:00,
2013-05-21 17:01:00,88.8,73.0,30.44,SSE,150,7.0,-999.0,60,-99.99,,,0.00,weatherlink.com 1.10,2013-05-21 22:01:00,
2013-05-21 17:16:00,88.3,73.0,30.44,South,184,8.0,-999.0,61,-99.99,,,0.00,weatherlink.com 1.10,2013-05-21 22:16:00,
2013-05-21 17:31:00,86.6,72.0,30.45,SSW,197,11.0,-999.0,63,-99.99,,,0.00,weatherlink.com 1.10,2013-05-21 22:31:00,
2013-05-21 17:46:00,87.0,72.0,30.45,South,178,10.0,-999.0,62,-99.99,,,0.00,weatherlink.com 1.10,2013-05-21 22:46:00,
2013-05-21 18:01:00,85.8,73.0,30.44,South,184,11.0,-999.0,66,-99.99,,,0.00,weatherlink.com 1.10,2013-05-21 23:01:00,
2013-05-21 18:16:00,85.0,73.0,30.43,SE,145,14.0,-999.0,67,-99.99,,,0.00,weatherlink.com 1.10,2013-05-21 23:16:00,
2013-05-21 18:31:00,84.6,73.0,30.44,SSE,150,7.0,-999.0,68,-99.99,,,0.00,weatherlink.com 1.10,2013-05-21 23:31:00,
2013-05-21 18:46:00,84.3,72.0,30.44,South,179,13.0,-999.0,67,-99.99,,,0.00,weatherlink.com 1.10,2013-05-21 23:46:00,
2013-05-21 19:01:00,83.8,72.0,30.46,South,182,12.0,-999.0,68,-99.99,,,0.00,weatherlink.com 1.10,2013-05-22 00:01:00,
2013-05-21 19:16:00,83.4,72.0,30.47,SSE,155,7.0,-999.0,69,-99.99,,,0.00,weatherlink.com 1.10,2013-05-22 00:16:00,
2013-05-21 19:31:00,83.2,72.0,30.47,South,181,9.0,-999.0,69,-99.99,,,0.00,weatherlink.com 1.10,2013-05-22 00:31:00,
2013-05-21 19:45:00,82.8,73.0,30.48,SSW,207,6.0,-999.0,71,-99.99,,,0.00,weatherlink.com 1.10,2013-05-22 00:45:00,
2013-05-21 20:00:00,82.5,72.0,30.50,SE,146,5.0,-999.0,71,-99.99,,,0.00,weatherlink.com 1.10,2013-05-22 01:00:00,
2013-05-21 20:15:00,82.2,72.0,30.50,South,178,4.0,-999.0,72,-99.99,,,0.00,weatherlink.com 1.10,2013-05-22 01:15:00,
2013-05-21 20:30:00,81.8,72.0,30.51,South,178,3.0,-999.0,73,-99.99,,,0.00,weatherlink.com 1.10,2013-05-22 01:30:00,
2013-05-21 20:46:00,81.4,73.0,30.52,SSE,157,4.0,-999.0,75,-99.99,,,0.00,weatherlink.com 1.10,2013-05-22 01:46:00,
2013-05-21 21:01:00,80.9,73.0,30.51,SE,134,4.0,-999.0,76,-99.99,,,0.00,weatherlink.com 1.10,2013-05-22 02:01:00,
2013-05-21 21:16:00,80.7,73.0,30.52,East,82,3.0,-999.0,76,-99.99,,,0.00,weatherlink.com 1.10,2013-05-22 02:16:00,
2013-05-21 21:31:00,80.3,72.0,30.52,SE,138,1.0,-999.0,76,-99.99,,,0.00,weatherlink.com 1.10,2013-05-22 02:31:00,
2013-05-21 21:46:00,78.3,68.0,30.54,NW,315,3.0,-999.0,71,-99.99,,,0.00,weatherlink.com 1.10,2013-05-22 02:46:00,
2013-05-21 22:01:00,74.9,67.0,30.54,ENE,65,3.0,-999.0,77,-99.99,,,0.00,weatherlink.com 1.10,2013-05-22 03:01:00,
2013-05-21 22:16:00,75.3,68.0,30.56,NW,316,1.0,-999.0,78,-99.99,,,0.00,weatherlink.com 1.10,2013-05-22 03:16:00,
2013-05-21 22:31:00,75.0,67.0,30.57,NW,311,0.0,-999.0,77,-99.99,,,0.00,weatherlink.com 1.10,2013-05-22 03:31:00,
2013-05-21 22:46:00,73.1,67.0,30.59,NE,55,3.0,-999.0,82,-99.99,,,0.00,weatherlink.com 1.10,2013-05-22 03:46:00,
2013-05-21 23:01:00,72.2,68.0,30.59,WNW,296,2.0,-999.0,85,-99.99,,,0.01,weatherlink.com 1.10,2013-05-22 04:01:00,
2013-05-21 23:16:00,70.3,67.0,30.59,NW,309,4.0,-999.0,89,-99.99,,,0.18,weatherlink.com 1.10,2013-05-22 04:16:00,
2013-05-21 23:31:00,68.6,65.0,30.60,NE,53,0.0,-999.0,89,-99.99,,,0.67,weatherlink.com 1.10,2013-05-22 04:31:00,
2013-05-21 23:46:00,68.4,66.0,30.61,NE,53,1.0,-999.0,91,-99.99,,,0.00,weatherlink.com 1.10,2013-05-22 04:46:00,